Mayburn Corners, Ohio
Current Conditions -  °F | °C
As of 10:51 PM on Sunday 23 Nov 2014 (Local Time) from KYNG Reporting Station
Light Rain Light Rain  
Wind Chill: 50°   Ceiling: 6000
Heat Index: 50°   Visibility: 9mi
Dew Point: 47°   Wind: 21mph
Humidity: 89%   Direction: 120°ESE
Pressure: 29.5"   Gusts: 30mph
Location:  41.4314°N, 80.6629°W
Report Text: KYNG 240351Z 12018G26KT 9SM -RA BKN060 BKN075 OVC100 10/08 A2950 RMK AO2 PK WND 12026/0349 SLP990 P0003 T01000083
Loading
Personal Weather Stations






























Interactive Weather Map New forecast layout! Learn more

10-Day Weather Forecast

Advertisements
Track Severe Weather on mobile